sensor_id;sensor_type;location;lat;lon;timestamp;temperature;humidity
9885;DHT22;4981;50.966;4.842;2022-12-24T00:02:20;11.00;1.00
9885;DHT22;4981;50.966;4.842;2022-12-24T00:04:47;11.50;1.00
9885;DHT22;4981;50.966;4.842;2022-12-24T00:07:16;11.10;1.00
9885;DHT22;4981;50.966;4.842;2022-12-24T00:09:45;10.60;1.00
9885;DHT22;4981;50.966;4.842;2022-12-24T00:12:13;10.90;1.00
9885;DHT22;4981;50.966;4.842;2022-12-24T00:14:43;10.90;1.00
9885;DHT22;4981;50.966;4.842;2022-12-24T00:17:13;10.90;1.00
9885;DHT22;4981;50.966;4.842;2022-12-24T00:19:40;10.70;1.00
9885;DHT22;4981;50.966;4.842;2022-12-24T00:22:11;11.10;1.00
9885;DHT22;4981;50.966;4.842;2022-12-24T00:24:41;10.80;1.00
9885;DHT22;4981;50.966;4.842;2022-12-24T00:27:12;11.00;1.00
9885;DHT22;4981;50.966;4.842;2022-12-24T00:29:39;9.50;1.00
9885;DHT22;4981;50.966;4.842;2022-12-24T00:32:07;11.10;1.00
9885;DHT22;4981;50.966;4.842;2022-12-24T00:34:35;13.20;1.00
9885;DHT22;4981;50.966;4.842;2022-12-24T00:37:02;11.20;1.00
9885;DHT22;4981;50.966;4.842;2022-12-24T00:39:29;10.90;1.00
9885;DHT22;4981;50.966;4.842;2022-12-24T00:42:03;10.90;1.00
9885;DHT22;4981;50.966;4.842;2022-12-24T00:44:31;10.60;1.00
9885;DHT22;4981;50.966;4.842;2022-12-24T00:46:58;10.40;1.00
9885;DHT22;4981;50.966;4.842;2022-12-24T00:49:25;10.60;1.00
9885;DHT22;4981;50.966;4.842;2022-12-24T00:51:54;10.50;1.00
9885;DHT22;4981;50.966;4.842;2022-12-24T00:54:21;10.70;1.00
9885;DHT22;4981;50.966;4.842;2022-12-24T00:56:49;10.80;1.00
9885;DHT22;4981;50.966;4.842;2022-12-24T00:59:18;11.40;1.00
9885;DHT22;4981;50.966;4.842;2022-12-24T01:01:45;10.80;1.00
9885;DHT22;4981;50.966;4.842;2022-12-24T01:04:12;10.60;1.00
9885;DHT22;4981;50.966;4.842;2022-12-24T01:07:08;10.70;1.00
9885;DHT22;4981;50.966;4.842;2022-12-24T01:09:35;10.60;1.00
9885;DHT22;4981;50.966;4.842;2022-12-24T01:12:08;10.70;1.00
9885;DHT22;4981;50.966;4.842;2022-12-24T01:14:38;10.20;1.00
9885;DHT22;4981;50.966;4.842;2022-12-24T01:17:09;10.80;1.00
9885;DHT22;4981;50.966;4.842;2022-12-24T01:19:36;10.30;1.00
9885;DHT22;4981;50.966;4.842;2022-12-24T01:22:07;11.00;1.00
9885;DHT22;4981;50.966;4.842;2022-12-24T01:24:35;10.70;1.00
9885;DHT22;4981;50.966;4.842;2022-12-24T01:27:02;10.60;1.00
9885;DHT22;4981;50.966;4.842;2022-12-24T01:29:29;10.80;1.00
9885;DHT22;4981;50.966;4.842;2022-12-24T01:31:59;10.60;1.00
9885;DHT22;4981;50.966;4.842;2022-12-24T01:34:26;10.70;1.00
9885;DHT22;4981;50.966;4.842;2022-12-24T01:36:56;10.50;1.00
9885;DHT22;4981;50.966;4.842;2022-12-24T01:39:23;11.50;1.00
9885;DHT22;4981;50.966;4.842;2022-12-24T01:41:57;10.20;1.00
9885;DHT22;4981;50.966;4.842;2022-12-24T01:44:53;10.70;1.00
9885;DHT22;4981;50.966;4.842;2022-12-24T01:47:24;9.90;1.00
9885;DHT22;4981;50.966;4.842;2022-12-24T01:49:54;9.90;1.00
9885;DHT22;4981;50.966;4.842;2022-12-24T01:52:26;9.80;1.00
9885;DHT22;4981;50.966;4.842;2022-12-24T01:54:57;9.60;1.00
9885;DHT22;4981;50.966;4.842;2022-12-24T01:57:31;9.60;1.00
9885;DHT22;4981;50.966;4.842;2022-12-24T02:00:03;9.10;1.00
9885;DHT22;4981;50.966;4.842;2022-12-24T02:02:33;11.30;1.00
9885;DHT22;4981;50.966;4.842;2022-12-24T02:05:04;9.80;1.00
9885;DHT22;4981;50.966;4.842;2022-12-24T02:07:37;9.80;1.00
9885;DHT22;4981;50.966;4.842;2022-12-24T02:10:06;8.60;1.00
9885;DHT22;4981;50.966;4.842;2022-12-24T02:12:34;9.60;1.00
9885;DHT22;4981;50.966;4.842;2022-12-24T02:15:03;9.50;1.00
9885;DHT22;4981;50.966;4.842;2022-12-24T02:17:38;9.40;1.00
9885;DHT22;4981;50.966;4.842;2022-12-24T02:20:31;9.80;1.00
9885;DHT22;4981;50.966;4.842;2022-12-24T02:23:19;9.40;1.00
9885;DHT22;4981;50.966;4.842;2022-12-24T02:26:08;8.60;1.00
9885;DHT22;4981;50.966;4.842;2022-12-24T02:28:51;9.40;1.00
9885;DHT22;4981;50.966;4.842;2022-12-24T02:31:33;7.90;1.00
9885;DHT22;4981;50.966;4.842;2022-12-24T02:34:06;9.30;1.00
9885;DHT22;4981;50.966;4.842;2022-12-24T02:36:39;9.30;1.00
9885;DHT22;4981;50.966;4.842;2022-12-24T02:39:10;9.30;1.00
9885;DHT22;4981;50.966;4.842;2022-12-24T02:41:42;9.40;1.00
9885;DHT22;4981;50.966;4.842;2022-12-24T02:44:32;9.20;1.00
9885;DHT22;4981;50.966;4.842;2022-12-24T02:47:03;9.30;1.00
9885;DHT22;4981;50.966;4.842;2022-12-24T02:49:35;9.80;1.00
9885;DHT22;4981;50.966;4.842;2022-12-24T02:52:05;9.50;1.00
9885;DHT22;4981;50.966;4.842;2022-12-24T02:54:33;9.50;1.00
9885;DHT22;4981;50.966;4.842;2022-12-24T02:57:07;9.40;1.00
9885;DHT22;4981;50.966;4.842;2022-12-24T03:00:02;9.70;1.00
9885;DHT22;4981;50.966;4.842;2022-12-24T03:02:48;9.60;1.00
9885;DHT22;4981;50.966;4.842;2022-12-24T03:05:23;9.60;1.00
9885;DHT22;4981;50.966;4.842;2022-12-24T03:07:59;9.60;1.00
9885;DHT22;4981;50.966;4.842;2022-12-24T03:10:33;9.80;1.00
9885;DHT22;4981;50.966;4.842;2022-12-24T03:13:06;9.60;1.00
9885;DHT22;4981;50.966;4.842;2022-12-24T03:15:38;9.70;1.00
9885;DHT22;4981;50.966;4.842;2022-12-24T03:18:20;9.80;1.00
9885;DHT22;4981;50.966;4.842;2022-12-24T03:20:57;9.20;1.00
9885;DHT22;4981;50.966;4.842;2022-12-24T03:23:29;9.00;1.00
9885;DHT22;4981;50.966;4.842;2022-12-24T03:25:59;8.90;1.00
9885;DHT22;4981;50.966;4.842;2022-12-24T03:28:28;9.70;1.00
9885;DHT22;4981;50.966;4.842;2022-12-24T03:30:59;9.80;1.00
9885;DHT22;4981;50.966;4.842;2022-12-24T03:33:34;10.10;1.00
9885;DHT22;4981;50.966;4.842;2022-12-24T03:36:11;9.50;1.00
9885;DHT22;4981;50.966;4.842;2022-12-24T03:38:38;9.80;1.00
9885;DHT22;4981;50.966;4.842;2022-12-24T03:41:06;9.60;1.00
9885;DHT22;4981;50.966;4.842;2022-12-24T03:43:33;9.90;1.00
9885;DHT22;4981;50.966;4.842;2022-12-24T03:46:03;9.80;1.00
9885;DHT22;4981;50.966;4.842;2022-12-24T03:48:37;9.30;1.00
9885;DHT22;4981;50.966;4.842;2022-12-24T03:51:17;10.00;1.00
9885;DHT22;4981;50.966;4.842;2022-12-24T03:53:54;10.20;1.00
9885;DHT22;4981;50.966;4.842;2022-12-24T03:56:24;9.80;1.00
9885;DHT22;4981;50.966;4.842;2022-12-24T03:59:06;9.90;1.00
9885;DHT22;4981;50.966;4.842;2022-12-24T04:01:36;9.80;1.00
9885;DHT22;4981;50.966;4.842;2022-12-24T04:04:05;10.00;1.00
9885;DHT22;4981;50.966;4.842;2022-12-24T04:06:33;6.40;1.00
9885;DHT22;4981;50.966;4.842;2022-12-24T04:09:00;9.70;1.00
9885;DHT22;4981;50.966;4.842;2022-12-24T04:11:32;9.70;1.00
9885;DHT22;4981;50.966;4.842;2022-12-24T04:14:00;10.10;1.00
9885;DHT22;4981;50.966;4.842;2022-12-24T04:16:28;9.00;1.00
9885;DHT22;4981;50.966;4.842;2022-12-24T04:18:57;9.60;1.00
9885;DHT22;4981;50.966;4.842;2022-12-24T04:21:27;12.90;1.00
9885;DHT22;4981;50.966;4.842;2022-12-24T04:23:54;9.70;1.00
9885;DHT22;4981;50.966;4.842;2022-12-24T04:26:21;9.80;1.00
9885;DHT22;4981;50.966;4.842;2022-12-24T04:28:48;9.70;1.00
9885;DHT22;4981;50.966;4.842;2022-12-24T04:31:17;9.70;1.00
9885;DHT22;4981;50.966;4.842;2022-12-24T04:33:46;9.90;1.00
9885;DHT22;4981;50.966;4.842;2022-12-24T04:36:15;10.00;1.00
9885;DHT22;4981;50.966;4.842;2022-12-24T04:38:46;9.70;1.00
9885;DHT22;4981;50.966;4.842;2022-12-24T04:41:16;10.10;1.00
9885;DHT22;4981;50.966;4.842;2022-12-24T04:43:44;9.60;1.00
9885;DHT22;4981;50.966;4.842;2022-12-24T04:46:13;9.60;1.00
9885;DHT22;4981;50.966;4.842;2022-12-24T04:48:43;10.00;1.00
9885;DHT22;4981;50.966;4.842;2022-12-24T04:51:11;9.50;1.00
9885;DHT22;4981;50.966;4.842;2022-12-24T04:53:40;9.80;1.00
9885;DHT22;4981;50.966;4.842;2022-12-24T04:56:11;9.60;1.00
9885;DHT22;4981;50.966;4.842;2022-12-24T04:58:39;10.00;1.00
9885;DHT22;4981;50.966;4.842;2022-12-24T05:01:07;9.70;1.00
9885;DHT22;4981;50.966;4.842;2022-12-24T05:03:37;10.10;1.00
9885;DHT22;4981;50.966;4.842;2022-12-24T05:06:07;10.00;1.00
9885;DHT22;4981;50.966;4.842;2022-12-24T05:08:36;9.80;1.00
9885;DHT22;4981;50.966;4.842;2022-12-24T05:11:05;7.20;1.00
9885;DHT22;4981;50.966;4.842;2022-12-24T05:13:34;9.80;1.00
9885;DHT22;4981;50.966;4.842;2022-12-24T05:16:02;9.90;1.00
9885;DHT22;4981;50.966;4.842;2022-12-24T05:18:30;9.80;1.00
9885;DHT22;4981;50.966;4.842;2022-12-24T05:20:57;9.90;1.00
9885;DHT22;4981;50.966;4.842;2022-12-24T05:23:25;10.00;1.00
9885;DHT22;4981;50.966;4.842;2022-12-24T05:26:14;9.90;1.00
9885;DHT22;4981;50.966;4.842;2022-12-24T05:28:51;9.70;1.00
9885;DHT22;4981;50.966;4.842;2022-12-24T05:31:19;9.90;1.00
9885;DHT22;4981;50.966;4.842;2022-12-24T05:33:47;10.00;1.00
9885;DHT22;4981;50.966;4.842;2022-12-24T05:36:15;9.90;1.00
9885;DHT22;4981;50.966;4.842;2022-12-24T05:38:45;9.90;1.00
9885;DHT22;4981;50.966;4.842;2022-12-24T05:41:12;10.10;1.00
9885;DHT22;4981;50.966;4.842;2022-12-24T05:43:39;10.20;1.00
9885;DHT22;4981;50.966;4.842;2022-12-24T05:46:13;10.10;1.00
9885;DHT22;4981;50.966;4.842;2022-12-24T05:48:40;10.20;1.00
9885;DHT22;4981;50.966;4.842;2022-12-24T05:51:09;10.20;1.00
9885;DHT22;4981;50.966;4.842;2022-12-24T05:53:37;10.20;1.00
9885;DHT22;4981;50.966;4.842;2022-12-24T05:56:05;10.30;1.00
9885;DHT22;4981;50.966;4.842;2022-12-24T05:58:33;10.00;1.00
9885;DHT22;4981;50.966;4.842;2022-12-24T06:01:01;10.00;1.00
9885;DHT22;4981;50.966;4.842;2022-12-24T06:03:30;9.80;1.00
9885;DHT22;4981;50.966;4.842;2022-12-24T06:05:59;9.90;1.00
9885;DHT22;4981;50.966;4.842;2022-12-24T06:08:26;10.40;1.00
9885;DHT22;4981;50.966;4.842;2022-12-24T06:10:55;10.20;1.00
9885;DHT22;4981;50.966;4.842;2022-12-24T06:13:24;10.40;1.00
9885;DHT22;4981;50.966;4.842;2022-12-24T06:15:53;10.10;1.00
9885;DHT22;4981;50.966;4.842;2022-12-24T06:18:20;9.90;1.00
9885;DHT22;4981;50.966;4.842;2022-12-24T06:20:51;10.00;1.00
9885;DHT22;4981;50.966;4.842;2022-12-24T06:23:19;10.00;1.00
9885;DHT22;4981;50.966;4.842;2022-12-24T06:25:46;10.00;1.00
9885;DHT22;4981;50.966;4.842;2022-12-24T06:28:17;10.10;1.00
9885;DHT22;4981;50.966;4.842;2022-12-24T06:30:46;9.80;1.00
9885;DHT22;4981;50.966;4.842;2022-12-24T06:33:14;9.80;1.00
9885;DHT22;4981;50.966;4.842;2022-12-24T06:35:43;9.30;1.00
9885;DHT22;4981;50.966;4.842;2022-12-24T06:38:13;9.50;1.00
9885;DHT22;4981;50.966;4.842;2022-12-24T06:40:44;7.60;1.00
9885;DHT22;4981;50.966;4.842;2022-12-24T06:43:13;9.40;1.00
9885;DHT22;4981;50.966;4.842;2022-12-24T06:45:44;9.30;1.00
9885;DHT22;4981;50.966;4.842;2022-12-24T06:48:12;9.20;1.00
9885;DHT22;4981;50.966;4.842;2022-12-24T06:50:42;9.20;1.00
9885;DHT22;4981;50.966;4.842;2022-12-24T06:53:13;9.20;1.00
9885;DHT22;4981;50.966;4.842;2022-12-24T06:55:41;9.40;1.00
9885;DHT22;4981;50.966;4.842;2022-12-24T06:58:09;8.40;1.00
9885;DHT22;4981;50.966;4.842;2022-12-24T07:00:37;9.80;1.00
9885;DHT22;4981;50.966;4.842;2022-12-24T07:03:04;7.80;1.00
9885;DHT22;4981;50.966;4.842;2022-12-24T07:05:31;9.20;1.00
9885;DHT22;4981;50.966;4.842;2022-12-24T07:07:58;9.30;1.00
9885;DHT22;4981;50.966;4.842;2022-12-24T07:10:28;9.30;1.00
9885;DHT22;4981;50.966;4.842;2022-12-24T07:12:55;9.40;1.00
9885;DHT22;4981;50.966;4.842;2022-12-24T07:15:22;9.30;1.00
9885;DHT22;4981;50.966;4.842;2022-12-24T07:17:50;9.10;1.00
9885;DHT22;4981;50.966;4.842;2022-12-24T07:20:17;9.90;1.00
9885;DHT22;4981;50.966;4.842;2022-12-24T07:22:45;9.40;1.00
9885;DHT22;4981;50.966;4.842;2022-12-24T07:25:12;9.20;1.00
9885;DHT22;4981;50.966;4.842;2022-12-24T07:27:41;9.20;1.00
9885;DHT22;4981;50.966;4.842;2022-12-24T07:30:09;9.20;1.00
9885;DHT22;4981;50.966;4.842;2022-12-24T07:32:37;9.30;1.00
9885;DHT22;4981;50.966;4.842;2022-12-24T07:35:05;9.30;1.00
9885;DHT22;4981;50.966;4.842;2022-12-24T07:37:32;9.80;1.00
9885;DHT22;4981;50.966;4.842;2022-12-24T07:40:00;9.50;1.00
9885;DHT22;4981;50.966;4.842;2022-12-24T07:42:30;9.40;1.00
9885;DHT22;4981;50.966;4.842;2022-12-24T07:44:59;9.30;1.00
9885;DHT22;4981;50.966;4.842;2022-12-24T07:47:26;9.20;1.00
9885;DHT22;4981;50.966;4.842;2022-12-24T07:49:55;9.30;1.00
9885;DHT22;4981;50.966;4.842;2022-12-24T07:52:22;8.50;1.00
9885;DHT22;4981;50.966;4.842;2022-12-24T07:54:50;9.50;1.00
9885;DHT22;4981;50.966;4.842;2022-12-24T07:57:17;9.50;1.00
9885;DHT22;4981;50.966;4.842;2022-12-24T07:59:44;9.20;1.00
9885;DHT22;4981;50.966;4.842;2022-12-24T08:02:13;9.20;1.00
9885;DHT22;4981;50.966;4.842;2022-12-24T08:04:45;10.50;1.00
9885;DHT22;4981;50.966;4.842;2022-12-24T08:07:12;9.60;1.00
9885;DHT22;4981;50.966;4.842;2022-12-24T08:09:42;9.80;1.00
9885;DHT22;4981;50.966;4.842;2022-12-24T08:12:12;9.60;1.00
9885;DHT22;4981;50.966;4.842;2022-12-24T08:14:39;9.50;1.00
9885;DHT22;4981;50.966;4.842;2022-12-24T08:17:08;9.50;1.00
9885;DHT22;4981;50.966;4.842;2022-12-24T08:19:37;9.60;1.00
9885;DHT22;4981;50.966;4.842;2022-12-24T08:22:04;9.70;1.00
9885;DHT22;4981;50.966;4.842;2022-12-24T08:24:31;9.50;1.00
9885;DHT22;4981;50.966;4.842;2022-12-24T08:26:58;9.50;1.00
9885;DHT22;4981;50.966;4.842;2022-12-24T08:29:25;9.90;1.00
9885;DHT22;4981;50.966;4.842;2022-12-24T08:31:53;9.60;1.00
9885;DHT22;4981;50.966;4.842;2022-12-24T08:34:20;9.70;1.00
9885;DHT22;4981;50.966;4.842;2022-12-24T08:36:51;9.70;1.00
9885;DHT22;4981;50.966;4.842;2022-12-24T08:39:22;9.90;1.00
9885;DHT22;4981;50.966;4.842;2022-12-24T08:41:50;9.20;1.00
9885;DHT22;4981;50.966;4.842;2022-12-24T08:44:17;9.80;1.00
9885;DHT22;4981;50.966;4.842;2022-12-24T08:46:47;10.40;1.00
9885;DHT22;4981;50.966;4.842;2022-12-24T08:49:19;10.40;1.00
9885;DHT22;4981;50.966;4.842;2022-12-24T08:51:56;10.20;1.00
9885;DHT22;4981;50.966;4.842;2022-12-24T08:54:27;10.20;1.00
9885;DHT22;4981;50.966;4.842;2022-12-24T08:56:57;10.40;1.00
9885;DHT22;4981;50.966;4.842;2022-12-24T08:59:24;10.20;1.00
9885;DHT22;4981;50.966;4.842;2022-12-24T09:01:52;10.00;1.00
9885;DHT22;4981;50.966;4.842;2022-12-24T09:04:19;9.90;1.00
9885;DHT22;4981;50.966;4.842;2022-12-24T09:06:50;10.00;1.00
9885;DHT22;4981;50.966;4.842;2022-12-24T09:09:18;10.20;1.00
9885;DHT22;4981;50.966;4.842;2022-12-24T09:11:45;10.40;1.00
9885;DHT22;4981;50.966;4.842;2022-12-24T09:14:24;10.10;1.00
9885;DHT22;4981;50.966;4.842;2022-12-24T09:16:51;8.60;1.00
9885;DHT22;4981;50.966;4.842;2022-12-24T09:19:19;10.60;1.00
9885;DHT22;4981;50.966;4.842;2022-12-24T09:21:46;10.10;1.00
9885;DHT22;4981;50.966;4.842;2022-12-24T09:24:23;7.50;1.00
9885;DHT22;4981;50.966;4.842;2022-12-24T09:26:51;10.60;1.00
9885;DHT22;4981;50.966;4.842;2022-12-24T09:29:19;10.30;1.00
9885;DHT22;4981;50.966;4.842;2022-12-24T09:31:47;9.90;1.00
9885;DHT22;4981;50.966;4.842;2022-12-24T09:34:17;12.80;1.00
9885;DHT22;4981;50.966;4.842;2022-12-24T09:36:44;9.50;1.00
9885;DHT22;4981;50.966;4.842;2022-12-24T09:39:12;10.40;1.00
9885;DHT22;4981;50.966;4.842;2022-12-24T09:41:48;10.60;1.00
9885;DHT22;4981;50.966;4.842;2022-12-24T09:44:32;10.50;1.00
9885;DHT22;4981;50.966;4.842;2022-12-24T09:47:10;10.60;1.00
9885;DHT22;4981;50.966;4.842;2022-12-24T09:49:43;10.40;1.00
9885;DHT22;4981;50.966;4.842;2022-12-24T09:52:14;10.50;1.00
9885;DHT22;4981;50.966;4.842;2022-12-24T09:54:46;10.70;1.00
9885;DHT22;4981;50.966;4.842;2022-12-24T09:57:25;8.70;1.00
9885;DHT22;4981;50.966;4.842;2022-12-24T09:59:54;10.80;1.00
9885;DHT22;4981;50.966;4.842;2022-12-24T10:02:21;10.50;1.00
9885;DHT22;4981;50.966;4.842;2022-12-24T10:04:54;10.80;1.00
9885;DHT22;4981;50.966;4.842;2022-12-24T10:07:34;10.50;1.00
9885;DHT22;4981;50.966;4.842;2022-12-24T10:10:13;10.80;1.00
9885;DHT22;4981;50.966;4.842;2022-12-24T10:12:52;10.80;1.00
9885;DHT22;4981;50.966;4.842;2022-12-24T10:15:26;10.90;1.00
9885;DHT22;4981;50.966;4.842;2022-12-24T10:18:06;10.60;1.00
9885;DHT22;4981;50.966;4.842;2022-12-24T10:20:43;10.50;1.00
9885;DHT22;4981;50.966;4.842;2022-12-24T10:23:18;10.60;1.00
9885;DHT22;4981;50.966;4.842;2022-12-24T10:25:52;10.70;1.00
9885;DHT22;4981;50.966;4.842;2022-12-24T10:28:27;10.50;1.00
9885;DHT22;4981;50.966;4.842;2022-12-24T10:31:00;10.80;1.00
9885;DHT22;4981;50.966;4.842;2022-12-24T10:33:33;10.80;1.00
9885;DHT22;4981;50.966;4.842;2022-12-24T10:36:07;10.80;1.00
9885;DHT22;4981;50.966;4.842;2022-12-24T10:38:45;10.70;1.00
9885;DHT22;4981;50.966;4.842;2022-12-24T10:41:14;10.90;1.00
9885;DHT22;4981;50.966;4.842;2022-12-24T10:43:44;11.00;1.00
9885;DHT22;4981;50.966;4.842;2022-12-24T10:46:17;11.00;1.00
9885;DHT22;4981;50.966;4.842;2022-12-24T10:48:50;11.10;1.00
9885;DHT22;4981;50.966;4.842;2022-12-24T10:51:22;11.00;1.00
9885;DHT22;4981;50.966;4.842;2022-12-24T10:53:58;10.80;1.00
9885;DHT22;4981;50.966;4.842;2022-12-24T10:56:26;10.80;1.00
9885;DHT22;4981;50.966;4.842;2022-12-24T10:58:55;11.30;1.00
9885;DHT22;4981;50.966;4.842;2022-12-24T11:01:42;13.10;1.00
9885;DHT22;4981;50.966;4.842;2022-12-24T11:04:15;10.90;1.00
9885;DHT22;4981;50.966;4.842;2022-12-24T11:06:52;11.00;1.00
9885;DHT22;4981;50.966;4.842;2022-12-24T11:09:21;11.00;1.00
9885;DHT22;4981;50.966;4.842;2022-12-24T11:11:50;11.10;1.00
9885;DHT22;4981;50.966;4.842;2022-12-24T11:14:20;11.00;1.00
9885;DHT22;4981;50.966;4.842;2022-12-24T11:16:53;11.10;1.00
9885;DHT22;4981;50.966;4.842;2022-12-24T11:19:29;11.00;1.00
9885;DHT22;4981;50.966;4.842;2022-12-24T11:22:02;10.90;1.00
9885;DHT22;4981;50.966;4.842;2022-12-24T11:24:32;10.90;1.00
9885;DHT22;4981;50.966;4.842;2022-12-24T11:27:23;10.80;1.00
9885;DHT22;4981;50.966;4.842;2022-12-24T11:30:21;10.80;1.00
9885;DHT22;4981;50.966;4.842;2022-12-24T11:32:50;10.90;1.00
9885;DHT22;4981;50.966;4.842;2022-12-24T11:35:42;11.00;1.00
9885;DHT22;4981;50.966;4.842;2022-12-24T11:38:16;11.00;1.00
9885;DHT22;4981;50.966;4.842;2022-12-24T11:40:47;10.50;1.00
9885;DHT22;4981;50.966;4.842;2022-12-24T11:43:17;11.10;1.00
9885;DHT22;4981;50.966;4.842;2022-12-24T11:45:51;11.20;1.00
9885;DHT22;4981;50.966;4.842;2022-12-24T11:48:27;11.20;1.00
9885;DHT22;4981;50.966;4.842;2022-12-24T11:53:47;11.20;1.00
9885;DHT22;4981;50.966;4.842;2022-12-24T11:56:28;11.40;1.00
9885;DHT22;4981;50.966;4.842;2022-12-24T11:59:01;11.60;1.00
9885;DHT22;4981;50.966;4.842;2022-12-24T12:01:48;11.70;1.00
9885;DHT22;4981;50.966;4.842;2022-12-24T12:04:19;11.90;1.00
9885;DHT22;4981;50.966;4.842;2022-12-24T12:06:49;11.80;1.00
9885;DHT22;4981;50.966;4.842;2022-12-24T12:09:21;11.60;1.00
9885;DHT22;4981;50.966;4.842;2022-12-24T12:11:52;12.30;1.00
9885;DHT22;4981;50.966;4.842;2022-12-24T12:14:29;11.80;1.00
9885;DHT22;4981;50.966;4.842;2022-12-24T12:17:04;11.80;1.00
9885;DHT22;4981;50.966;4.842;2022-12-24T12:19:38;11.90;1.00
9885;DHT22;4981;50.966;4.842;2022-12-24T12:22:16;12.40;1.00
9885;DHT22;4981;50.966;4.842;2022-12-24T12:24:49;11.80;1.00
9885;DHT22;4981;50.966;4.842;2022-12-24T12:27:22;11.60;1.00
9885;DHT22;4981;50.966;4.842;2022-12-24T12:29:56;11.80;1.00
9885;DHT22;4981;50.966;4.842;2022-12-24T12:32:33;11.70;1.00
9885;DHT22;4981;50.966;4.842;2022-12-24T12:35:08;11.70;1.00
9885;DHT22;4981;50.966;4.842;2022-12-24T12:37:51;11.60;1.00
9885;DHT22;4981;50.966;4.842;2022-12-24T12:40:27;11.70;1.00
9885;DHT22;4981;50.966;4.842;2022-12-24T12:43:04;12.50;1.00
9885;DHT22;4981;50.966;4.842;2022-12-24T12:45:39;11.50;1.00
9885;DHT22;4981;50.966;4.842;2022-12-24T12:48:19;11.40;1.00
9885;DHT22;4981;50.966;4.842;2022-12-24T12:50:53;11.50;1.00
9885;DHT22;4981;50.966;4.842;2022-12-24T12:53:31;11.50;1.00
9885;DHT22;4981;50.966;4.842;2022-12-24T12:56:05;11.50;1.00
9885;DHT22;4981;50.966;4.842;2022-12-24T12:58:38;11.60;1.00
9885;DHT22;4981;50.966;4.842;2022-12-24T13:01:12;11.60;1.00
9885;DHT22;4981;50.966;4.842;2022-12-24T13:04:09;11.50;1.00
9885;DHT22;4981;50.966;4.842;2022-12-24T13:07:10;11.60;1.00
9885;DHT22;4981;50.966;4.842;2022-12-24T13:09:52;11.60;1.00
9885;DHT22;4981;50.966;4.842;2022-12-24T13:12:39;11.60;1.00
9885;DHT22;4981;50.966;4.842;2022-12-24T13:15:39;11.60;1.00
9885;DHT22;4981;50.966;4.842;2022-12-24T13:18:26;11.60;1.00
9885;DHT22;4981;50.966;4.842;2022-12-24T13:21:01;11.50;1.00
9885;DHT22;4981;50.966;4.842;2022-12-24T13:23:29;11.50;1.00
9885;DHT22;4981;50.966;4.842;2022-12-24T13:25:57;12.10;1.00
9885;DHT22;4981;50.966;4.842;2022-12-24T13:28:34;11.80;1.00
9885;DHT22;4981;50.966;4.842;2022-12-24T13:31:22;12.00;1.00
9885;DHT22;4981;50.966;4.842;2022-12-24T13:33:51;11.80;1.00
9885;DHT22;4981;50.966;4.842;2022-12-24T13:36:20;11.70;1.00
9885;DHT22;4981;50.966;4.842;2022-12-24T13:38:49;11.80;1.00
9885;DHT22;4981;50.966;4.842;2022-12-24T13:41:48;12.00;1.00
9885;DHT22;4981;50.966;4.842;2022-12-24T13:44:26;12.00;1.00
9885;DHT22;4981;50.966;4.842;2022-12-24T13:47:00;11.90;1.00
9885;DHT22;4981;50.966;4.842;2022-12-24T13:49:33;12.10;1.00
9885;DHT22;4981;50.966;4.842;2022-12-24T13:52:17;12.00;1.00
9885;DHT22;4981;50.966;4.842;2022-12-24T13:57:52;11.80;1.00
9885;DHT22;4981;50.966;4.842;2022-12-24T14:00:51;11.80;1.00
9885;DHT22;4981;50.966;4.842;2022-12-24T14:03:27;11.90;1.00
9885;DHT22;4981;50.966;4.842;2022-12-24T14:05:58;11.90;1.00
9885;DHT22;4981;50.966;4.842;2022-12-24T14:08:32;11.80;1.00
9885;DHT22;4981;50.966;4.842;2022-12-24T14:11:07;11.80;1.00
9885;DHT22;4981;50.966;4.842;2022-12-24T14:13:53;11.70;1.00
9885;DHT22;4981;50.966;4.842;2022-12-24T14:16:23;11.70;1.00
9885;DHT22;4981;50.966;4.842;2022-12-24T14:18:58;11.60;1.00
9885;DHT22;4981;50.966;4.842;2022-12-24T14:21:30;11.70;1.00
9885;DHT22;4981;50.966;4.842;2022-12-24T14:24:02;11.80;1.00
9885;DHT22;4981;50.966;4.842;2022-12-24T14:26:33;11.80;1.00
9885;DHT22;4981;50.966;4.842;2022-12-24T14:29:04;11.50;1.00
9885;DHT22;4981;50.966;4.842;2022-12-24T14:31:32;11.50;1.00
9885;DHT22;4981;50.966;4.842;2022-12-24T14:34:11;11.50;1.00
9885;DHT22;4981;50.966;4.842;2022-12-24T14:36:43;11.40;1.00
9885;DHT22;4981;50.966;4.842;2022-12-24T14:39:23;11.40;1.00
9885;DHT22;4981;50.966;4.842;2022-12-24T14:42:00;11.50;1.00
9885;DHT22;4981;50.966;4.842;2022-12-24T14:44:35;11.30;1.00
9885;DHT22;4981;50.966;4.842;2022-12-24T14:47:20;11.50;1.00
9885;DHT22;4981;50.966;4.842;2022-12-24T14:50:02;11.30;1.00
9885;DHT22;4981;50.966;4.842;2022-12-24T14:52:37;11.30;1.00
9885;DHT22;4981;50.966;4.842;2022-12-24T14:55:34;9.40;1.00
9885;DHT22;4981;50.966;4.842;2022-12-24T14:58:24;11.20;1.00
9885;DHT22;4981;50.966;4.842;2022-12-24T15:00:53;11.20;1.00
9885;DHT22;4981;50.966;4.842;2022-12-24T15:03:22;11.20;1.00
9885;DHT22;4981;50.966;4.842;2022-12-24T15:05:52;11.10;1.00
9885;DHT22;4981;50.966;4.842;2022-12-24T15:08:26;11.10;1.00
9885;DHT22;4981;50.966;4.842;2022-12-24T15:10:59;11.20;1.00
9885;DHT22;4981;50.966;4.842;2022-12-24T15:13:31;11.10;1.00
9885;DHT22;4981;50.966;4.842;2022-12-24T15:16:01;11.10;1.00
9885;DHT22;4981;50.966;4.842;2022-12-24T15:18:30;11.00;1.00
9885;DHT22;4981;50.966;4.842;2022-12-24T15:21:00;11.20;1.00
9885;DHT22;4981;50.966;4.842;2022-12-24T15:23:30;11.00;1.00
9885;DHT22;4981;50.966;4.842;2022-12-24T15:26:18;11.00;1.00
9885;DHT22;4981;50.966;4.842;2022-12-24T15:28:46;10.90;1.00
9885;DHT22;4981;50.966;4.842;2022-12-24T15:31:15;10.90;1.00
9885;DHT22;4981;50.966;4.842;2022-12-24T15:33:44;10.90;1.00
9885;DHT22;4981;50.966;4.842;2022-12-24T15:36:13;11.10;1.00
9885;DHT22;4981;50.966;4.842;2022-12-24T15:38:42;10.90;1.00
9885;DHT22;4981;50.966;4.842;2022-12-24T15:41:18;11.00;1.00
9885;DHT22;4981;50.966;4.842;2022-12-24T15:43:47;10.70;1.00
9885;DHT22;4981;50.966;4.842;2022-12-24T15:46:19;10.80;1.00
9885;DHT22;4981;50.966;4.842;2022-12-24T15:48:47;10.70;1.00
9885;DHT22;4981;50.966;4.842;2022-12-24T15:51:22;10.60;1.00
9885;DHT22;4981;50.966;4.842;2022-12-24T15:53:54;10.90;1.00
9885;DHT22;4981;50.966;4.842;2022-12-24T15:56:45;10.50;1.00
9885;DHT22;4981;50.966;4.842;2022-12-24T15:59:28;9.70;1.00
9885;DHT22;4981;50.966;4.842;2022-12-24T16:05:28;9.10;1.00
9885;DHT22;4981;50.966;4.842;2022-12-24T16:08:00;10.50;1.00
9885;DHT22;4981;50.966;4.842;2022-12-24T16:10:34;10.10;1.00
9885;DHT22;4981;50.966;4.842;2022-12-24T16:13:11;9.60;1.00
9885;DHT22;4981;50.966;4.842;2022-12-24T16:15:44;9.00;1.00
9885;DHT22;4981;50.966;4.842;2022-12-24T16:18:18;9.30;1.00
9885;DHT22;4981;50.966;4.842;2022-12-24T16:20:49;9.50;1.00
9885;DHT22;4981;50.966;4.842;2022-12-24T16:23:19;9.30;1.00
9885;DHT22;4981;50.966;4.842;2022-12-24T16:25:46;9.60;1.00
9885;DHT22;4981;50.966;4.842;2022-12-24T16:28:15;9.60;1.00
9885;DHT22;4981;50.966;4.842;2022-12-24T16:30:43;9.60;1.00
9885;DHT22;4981;50.966;4.842;2022-12-24T16:33:15;9.50;1.00
9885;DHT22;4981;50.966;4.842;2022-12-24T16:35:44;9.60;1.00
9885;DHT22;4981;50.966;4.842;2022-12-24T16:38:12;9.60;1.00
9885;DHT22;4981;50.966;4.842;2022-12-24T16:40:39;7.30;1.00
9885;DHT22;4981;50.966;4.842;2022-12-24T16:43:07;9.60;1.00
9885;DHT22;4981;50.966;4.842;2022-12-24T16:45:59;9.60;1.00
9885;DHT22;4981;50.966;4.842;2022-12-24T16:48:27;9.50;1.00
9885;DHT22;4981;50.966;4.842;2022-12-24T16:50:55;9.50;1.00
9885;DHT22;4981;50.966;4.842;2022-12-24T16:53:22;9.40;1.00
9885;DHT22;4981;50.966;4.842;2022-12-24T16:55:50;9.70;1.00
9885;DHT22;4981;50.966;4.842;2022-12-24T16:58:18;9.40;1.00
9885;DHT22;4981;50.966;4.842;2022-12-24T17:00:45;8.60;1.00
9885;DHT22;4981;50.966;4.842;2022-12-24T17:03:14;9.40;1.00
9885;DHT22;4981;50.966;4.842;2022-12-24T17:05:42;9.40;1.00
9885;DHT22;4981;50.966;4.842;2022-12-24T17:08:10;9.40;1.00